sensor_id;sensor_type;location;lat;lon;timestamp;temperature;humidity
30889;DHT22;51092;50.874;7.024;2024-02-21T00:00:57;9.50;88.40
30889;DHT22;51092;50.874;7.024;2024-02-21T00:01:59;9.40;88.50
30889;DHT22;51092;50.874;7.024;2024-02-21T00:03:02;9.40;88.10
30889;DHT22;51092;50.874;7.024;2024-02-21T00:04:08;9.40;88.50
30889;DHT22;51092;50.874;7.024;2024-02-21T00:05:11;9.50;88.40
30889;DHT22;51092;50.874;7.024;2024-02-21T00:06:14;9.50;88.80
30889;DHT22;51092;50.874;7.024;2024-02-21T00:07:16;9.50;88.40
30889;DHT22;51092;50.874;7.024;2024-02-21T00:08:18;9.50;88.10
30889;DHT22;51092;50.874;7.024;2024-02-21T00:09:20;9.50;88.70
30889;DHT22;51092;50.874;7.024;2024-02-21T00:10:22;9.50;88.80
30889;DHT22;51092;50.874;7.024;2024-02-21T00:11:24;9.40;89.10
30889;DHT22;51092;50.874;7.024;2024-02-21T00:12:26;9.40;89.10
30889;DHT22;51092;50.874;7.024;2024-02-21T00:13:28;9.40;89.10
30889;DHT22;51092;50.874;7.024;2024-02-21T00:14:31;9.40;89.20
30889;DHT22;51092;50.874;7.024;2024-02-21T00:15:32;9.40;89.10
30889;DHT22;51092;50.874;7.024;2024-02-21T00:16:35;9.40;89.60
30889;DHT22;51092;50.874;7.024;2024-02-21T00:17:36;9.40;88.80
30889;DHT22;51092;50.874;7.024;2024-02-21T00:18:39;9.40;89.40
30889;DHT22;51092;50.874;7.024;2024-02-21T00:19:40;9.40;89.20
30889;DHT22;51092;50.874;7.024;2024-02-21T00:20:43;9.40;89.30
30889;DHT22;51092;50.874;7.024;2024-02-21T00:21:46;9.40;89.50
30889;DHT22;51092;50.874;7.024;2024-02-21T00:22:48;9.40;89.60
30889;DHT22;51092;50.874;7.024;2024-02-21T00:23:50;9.40;89.90
30889;DHT22;51092;50.874;7.024;2024-02-21T00:24:52;9.40;89.50
30889;DHT22;51092;50.874;7.024;2024-02-21T00:25:54;9.40;89.30
30889;DHT22;51092;50.874;7.024;2024-02-21T00:26:56;9.40;89.00
30889;DHT22;51092;50.874;7.024;2024-02-21T00:27:58;9.40;89.20
30889;DHT22;51092;50.874;7.024;2024-02-21T00:28:59;9.40;89.30
30889;DHT22;51092;50.874;7.024;2024-02-21T00:30:02;9.40;89.60
30889;DHT22;51092;50.874;7.024;2024-02-21T00:31:03;9.40;89.40
30889;DHT22;51092;50.874;7.024;2024-02-21T00:32:05;9.40;89.70
30889;DHT22;51092;50.874;7.024;2024-02-21T00:33:08;9.40;89.90
30889;DHT22;51092;50.874;7.024;2024-02-21T00:34:09;9.40;89.50
30889;DHT22;51092;50.874;7.024;2024-02-21T00:35:16;9.40;89.40
30889;DHT22;51092;50.874;7.024;2024-02-21T00:36:18;9.40;89.30
30889;DHT22;51092;50.874;7.024;2024-02-21T00:37:21;9.40;89.30
30889;DHT22;51092;50.874;7.024;2024-02-21T00:38:23;9.40;89.50
30889;DHT22;51092;50.874;7.024;2024-02-21T00:39:25;9.40;89.80
30889;DHT22;51092;50.874;7.024;2024-02-21T00:40:27;9.40;89.30
30889;DHT22;51092;50.874;7.024;2024-02-21T00:41:28;9.50;89.30
30889;DHT22;51092;50.874;7.024;2024-02-21T00:42:31;9.40;89.80
30889;DHT22;51092;50.874;7.024;2024-02-21T00:43:33;9.40;89.50
30889;DHT22;51092;50.874;7.024;2024-02-21T00:44:35;9.50;89.50
30889;DHT22;51092;50.874;7.024;2024-02-21T00:45:37;9.40;89.50
30889;DHT22;51092;50.874;7.024;2024-02-21T00:46:39;9.40;89.70
30889;DHT22;51092;50.874;7.024;2024-02-21T00:47:41;9.40;89.70
30889;DHT22;51092;50.874;7.024;2024-02-21T00:48:43;9.40;89.60
30889;DHT22;51092;50.874;7.024;2024-02-21T00:49:45;9.50;89.70
30889;DHT22;51092;50.874;7.024;2024-02-21T00:50:47;9.40;89.90
30889;DHT22;51092;50.874;7.024;2024-02-21T00:51:49;9.50;89.80
30889;DHT22;51092;50.874;7.024;2024-02-21T00:52:53;9.40;89.90
30889;DHT22;51092;50.874;7.024;2024-02-21T00:53:54;9.40;89.80
30889;DHT22;51092;50.874;7.024;2024-02-21T00:54:57;9.40;90.10
30889;DHT22;51092;50.874;7.024;2024-02-21T00:55:58;9.40;90.10
30889;DHT22;51092;50.874;7.024;2024-02-21T00:57:01;9.40;89.80
30889;DHT22;51092;50.874;7.024;2024-02-21T00:58:02;9.50;89.80
30889;DHT22;51092;50.874;7.024;2024-02-21T00:59:05;9.50;89.70
30889;DHT22;51092;50.874;7.024;2024-02-21T01:00:07;9.50;89.60
30889;DHT22;51092;50.874;7.024;2024-02-21T01:01:10;9.60;89.50
30889;DHT22;51092;50.874;7.024;2024-02-21T01:02:11;9.70;88.90
30889;DHT22;51092;50.874;7.024;2024-02-21T01:03:14;9.70;88.60
30889;DHT22;51092;50.874;7.024;2024-02-21T01:04:15;9.70;88.80
30889;DHT22;51092;50.874;7.024;2024-02-21T01:05:18;9.70;88.40
30889;DHT22;51092;50.874;7.024;2024-02-21T01:06:20;9.70;87.90
30889;DHT22;51092;50.874;7.024;2024-02-21T01:07:23;9.70;87.90
30889;DHT22;51092;50.874;7.024;2024-02-21T01:08:28;9.60;88.20
30889;DHT22;51092;50.874;7.024;2024-02-21T01:09:31;9.60;88.40
30889;DHT22;51092;50.874;7.024;2024-02-21T01:10:32;9.60;89.20
30889;DHT22;51092;50.874;7.024;2024-02-21T01:11:37;9.80;88.30
30889;DHT22;51092;50.874;7.024;2024-02-21T01:12:39;10.00;85.80
30889;DHT22;51092;50.874;7.024;2024-02-21T01:13:42;9.90;85.80
30889;DHT22;51092;50.874;7.024;2024-02-21T01:14:44;9.90;86.00
30889;DHT22;51092;50.874;7.024;2024-02-21T01:15:46;9.80;86.80
30889;DHT22;51092;50.874;7.024;2024-02-21T01:16:47;9.70;87.50
30889;DHT22;51092;50.874;7.024;2024-02-21T01:17:51;9.60;88.10
30889;DHT22;51092;50.874;7.024;2024-02-21T01:18:55;9.60;88.50
30889;DHT22;51092;50.874;7.024;2024-02-21T01:19:57;9.50;88.80
30889;DHT22;51092;50.874;7.024;2024-02-21T01:20:59;9.50;89.50
30889;DHT22;51092;50.874;7.024;2024-02-21T01:22:01;9.50;89.00
30889;DHT22;51092;50.874;7.024;2024-02-21T01:23:03;9.50;89.20
30889;DHT22;51092;50.874;7.024;2024-02-21T01:24:07;9.50;89.40
30889;DHT22;51092;50.874;7.024;2024-02-21T01:25:09;9.50;89.60
30889;DHT22;51092;50.874;7.024;2024-02-21T01:26:11;9.40;89.90
30889;DHT22;51092;50.874;7.024;2024-02-21T01:27:15;9.40;90.00
30889;DHT22;51092;50.874;7.024;2024-02-21T01:28:18;9.40;90.10
30889;DHT22;51092;50.874;7.024;2024-02-21T01:29:19;9.40;90.20
30889;DHT22;51092;50.874;7.024;2024-02-21T01:30:24;9.40;90.20
30889;DHT22;51092;50.874;7.024;2024-02-21T01:31:26;9.40;90.10
30889;DHT22;51092;50.874;7.024;2024-02-21T01:32:28;9.40;90.20
30889;DHT22;51092;50.874;7.024;2024-02-21T01:33:30;9.40;90.10
30889;DHT22;51092;50.874;7.024;2024-02-21T01:34:35;9.40;90.30
30889;DHT22;51092;50.874;7.024;2024-02-21T01:35:50;9.40;90.30
30889;DHT22;51092;50.874;7.024;2024-02-21T01:36:52;9.40;90.40
30889;DHT22;51092;50.874;7.024;2024-02-21T01:37:54;9.40;90.40
30889;DHT22;51092;50.874;7.024;2024-02-21T01:38:56;9.40;90.40
30889;DHT22;51092;50.874;7.024;2024-02-21T01:40:01;9.40;90.50
30889;DHT22;51092;50.874;7.024;2024-02-21T01:41:04;9.30;90.50
30889;DHT22;51092;50.874;7.024;2024-02-21T01:42:07;9.30;90.90
30889;DHT22;51092;50.874;7.024;2024-02-21T01:43:17;9.30;90.80
30889;DHT22;51092;50.874;7.024;2024-02-21T01:44:20;9.30;90.70
30889;DHT22;51092;50.874;7.024;2024-02-21T01:45:22;9.30;90.70
30889;DHT22;51092;50.874;7.024;2024-02-21T01:46:24;9.30;90.70
30889;DHT22;51092;50.874;7.024;2024-02-21T01:47:29;9.30;90.80
30889;DHT22;51092;50.874;7.024;2024-02-21T01:48:32;9.40;90.90
30889;DHT22;51092;50.874;7.024;2024-02-21T01:49:33;9.40;90.90
30889;DHT22;51092;50.874;7.024;2024-02-21T01:50:36;9.30;90.70
30889;DHT22;51092;50.874;7.024;2024-02-21T01:51:38;9.30;90.90
30889;DHT22;51092;50.874;7.024;2024-02-21T01:52:41;9.30;91.00
30889;DHT22;51092;50.874;7.024;2024-02-21T01:53:45;9.30;91.00
30889;DHT22;51092;50.874;7.024;2024-02-21T01:54:48;9.30;90.90
30889;DHT22;51092;50.874;7.024;2024-02-21T01:55:51;9.40;90.70
30889;DHT22;51092;50.874;7.024;2024-02-21T01:56:55;9.40;90.80
30889;DHT22;51092;50.874;7.024;2024-02-21T01:57:56;9.30;90.90
30889;DHT22;51092;50.874;7.024;2024-02-21T01:58:59;9.40;90.90
30889;DHT22;51092;50.874;7.024;2024-02-21T02:00:01;9.30;90.90
30889;DHT22;51092;50.874;7.024;2024-02-21T02:01:04;9.30;90.90
30889;DHT22;51092;50.874;7.024;2024-02-21T02:02:06;9.30;91.00
30889;DHT22;51092;50.874;7.024;2024-02-21T02:03:10;9.40;91.00
30889;DHT22;51092;50.874;7.024;2024-02-21T02:04:17;9.40;90.80
30889;DHT22;51092;50.874;7.024;2024-02-21T02:05:21;9.30;91.00
30889;DHT22;51092;50.874;7.024;2024-02-21T02:06:23;9.30;91.00
30889;DHT22;51092;50.874;7.024;2024-02-21T02:07:25;9.30;91.10
30889;DHT22;51092;50.874;7.024;2024-02-21T02:08:30;9.40;91.20
30889;DHT22;51092;50.874;7.024;2024-02-21T02:09:34;9.30;91.10
30889;DHT22;51092;50.874;7.024;2024-02-21T02:10:36;9.30;91.30
30889;DHT22;51092;50.874;7.024;2024-02-21T02:11:40;9.30;91.30
30889;DHT22;51092;50.874;7.024;2024-02-21T02:12:43;9.30;91.20
30889;DHT22;51092;50.874;7.024;2024-02-21T02:13:46;9.30;91.40
30889;DHT22;51092;50.874;7.024;2024-02-21T02:14:46;9.30;91.50
30889;DHT22;51092;50.874;7.024;2024-02-21T02:15:58;9.30;91.50
30889;DHT22;51092;50.874;7.024;2024-02-21T02:16:59;9.40;91.50
30889;DHT22;51092;50.874;7.024;2024-02-21T02:18:00;9.40;91.10
30889;DHT22;51092;50.874;7.024;2024-02-21T02:19:02;9.40;91.20
30889;DHT22;51092;50.874;7.024;2024-02-21T02:20:05;9.50;91.20
30889;DHT22;51092;50.874;7.024;2024-02-21T02:21:13;9.40;91.10
30889;DHT22;51092;50.874;7.024;2024-02-21T02:22:22;9.40;91.10
30889;DHT22;51092;50.874;7.024;2024-02-21T02:23:28;9.40;91.30
30889;DHT22;51092;50.874;7.024;2024-02-21T02:24:30;9.30;91.50
30889;DHT22;51092;50.874;7.024;2024-02-21T02:25:33;9.30;91.60
30889;DHT22;51092;50.874;7.024;2024-02-21T02:26:34;9.40;91.50
30889;DHT22;51092;50.874;7.024;2024-02-21T02:27:42;9.30;91.70
30889;DHT22;51092;50.874;7.024;2024-02-21T02:28:45;9.30;91.80
30889;DHT22;51092;50.874;7.024;2024-02-21T02:29:47;9.40;91.70
30889;DHT22;51092;50.874;7.024;2024-02-21T02:30:49;9.30;91.80
30889;DHT22;51092;50.874;7.024;2024-02-21T02:31:52;9.30;92.10
30889;DHT22;51092;50.874;7.024;2024-02-21T02:32:53;9.20;92.30
30889;DHT22;51092;50.874;7.024;2024-02-21T02:33:56;9.20;92.20
30889;DHT22;51092;50.874;7.024;2024-02-21T02:34:57;9.20;92.20
30889;DHT22;51092;50.874;7.024;2024-02-21T02:36:00;9.20;92.20
30889;DHT22;51092;50.874;7.024;2024-02-21T02:37:01;9.20;92.10
30889;DHT22;51092;50.874;7.024;2024-02-21T02:38:03;9.20;92.00
30889;DHT22;51092;50.874;7.024;2024-02-21T02:39:05;9.20;92.20
30889;DHT22;51092;50.874;7.024;2024-02-21T02:40:08;9.20;92.00
30889;DHT22;51092;50.874;7.024;2024-02-21T02:41:09;9.20;92.30
30889;DHT22;51092;50.874;7.024;2024-02-21T02:42:12;9.20;92.10
30889;DHT22;51092;50.874;7.024;2024-02-21T02:43:13;9.20;91.90
30889;DHT22;51092;50.874;7.024;2024-02-21T02:44:16;9.20;91.90
30889;DHT22;51092;50.874;7.024;2024-02-21T02:45:18;9.20;92.00
30889;DHT22;51092;50.874;7.024;2024-02-21T02:46:20;9.20;92.00
30889;DHT22;51092;50.874;7.024;2024-02-21T02:47:22;9.30;91.60
30889;DHT22;51092;50.874;7.024;2024-02-21T02:48:26;9.30;91.50
30889;DHT22;51092;50.874;7.024;2024-02-21T02:49:27;9.30;91.60
30889;DHT22;51092;50.874;7.024;2024-02-21T02:50:29;9.30;91.60
30889;DHT22;51092;50.874;7.024;2024-02-21T02:51:31;9.30;91.80
30889;DHT22;51092;50.874;7.024;2024-02-21T02:52:33;9.30;91.60
30889;DHT22;51092;50.874;7.024;2024-02-21T02:53:34;9.30;91.70
30889;DHT22;51092;50.874;7.024;2024-02-21T02:54:37;9.30;91.80
30889;DHT22;51092;50.874;7.024;2024-02-21T02:55:38;9.30;91.60
30889;DHT22;51092;50.874;7.024;2024-02-21T02:56:40;9.30;91.60
30889;DHT22;51092;50.874;7.024;2024-02-21T02:57:42;9.30;91.80
30889;DHT22;51092;50.874;7.024;2024-02-21T02:58:44;9.30;91.80
30889;DHT22;51092;50.874;7.024;2024-02-21T02:59:47;9.30;91.70
30889;DHT22;51092;50.874;7.024;2024-02-21T03:00:50;9.30;91.40
30889;DHT22;51092;50.874;7.024;2024-02-21T03:01:51;9.30;91.50
30889;DHT22;51092;50.874;7.024;2024-02-21T03:02:54;9.30;91.40
30889;DHT22;51092;50.874;7.024;2024-02-21T03:03:55;9.30;91.40
30889;DHT22;51092;50.874;7.024;2024-02-21T03:04:58;9.30;91.40
30889;DHT22;51092;50.874;7.024;2024-02-21T03:05:59;9.30;91.40
30889;DHT22;51092;50.874;7.024;2024-02-21T03:07:02;9.30;91.30
30889;DHT22;51092;50.874;7.024;2024-02-21T03:08:04;9.30;91.40
30889;DHT22;51092;50.874;7.024;2024-02-21T03:09:08;9.30;91.30
30889;DHT22;51092;50.874;7.024;2024-02-21T03:10:11;9.30;91.50
30889;DHT22;51092;50.874;7.024;2024-02-21T03:11:14;9.30;91.50
30889;DHT22;51092;50.874;7.024;2024-02-21T03:12:15;9.20;91.60
30889;DHT22;51092;50.874;7.024;2024-02-21T03:13:25;9.20;91.60
30889;DHT22;51092;50.874;7.024;2024-02-21T03:14:26;9.20;91.60
30889;DHT22;51092;50.874;7.024;2024-02-21T03:15:29;9.20;91.70
30889;DHT22;51092;50.874;7.024;2024-02-21T03:16:30;9.20;91.60
30889;DHT22;51092;50.874;7.024;2024-02-21T03:17:33;9.20;91.60
30889;DHT22;51092;50.874;7.024;2024-02-21T03:18:35;9.20;91.70
30889;DHT22;51092;50.874;7.024;2024-02-21T03:19:37;9.20;91.70
30889;DHT22;51092;50.874;7.024;2024-02-21T03:20:39;9.20;91.50
30889;DHT22;51092;50.874;7.024;2024-02-21T03:21:41;9.20;91.70
30889;DHT22;51092;50.874;7.024;2024-02-21T03:22:43;9.20;91.60
30889;DHT22;51092;50.874;7.024;2024-02-21T03:23:45;9.20;91.70
30889;DHT22;51092;50.874;7.024;2024-02-21T03:24:47;9.20;91.60
30889;DHT22;51092;50.874;7.024;2024-02-21T03:25:51;9.10;91.80
30889;DHT22;51092;50.874;7.024;2024-02-21T03:26:52;9.10;91.80
30889;DHT22;51092;50.874;7.024;2024-02-21T03:27:55;9.10;91.90
30889;DHT22;51092;50.874;7.024;2024-02-21T03:28:56;9.10;91.80
30889;DHT22;51092;50.874;7.024;2024-02-21T03:29:59;9.10;92.00
30889;DHT22;51092;50.874;7.024;2024-02-21T03:31:00;9.10;92.00
30889;DHT22;51092;50.874;7.024;2024-02-21T03:32:03;9.10;91.80
30889;DHT22;51092;50.874;7.024;2024-02-21T03:33:04;9.10;91.80
30889;DHT22;51092;50.874;7.024;2024-02-21T03:34:07;9.10;91.70
30889;DHT22;51092;50.874;7.024;2024-02-21T03:35:09;9.10;91.90
30889;DHT22;51092;50.874;7.024;2024-02-21T03:36:13;9.10;92.00
30889;DHT22;51092;50.874;7.024;2024-02-21T03:37:15;9.10;91.80
30889;DHT22;51092;50.874;7.024;2024-02-21T03:38:19;9.10;91.70
30889;DHT22;51092;50.874;7.024;2024-02-21T03:39:20;9.10;91.80
30889;DHT22;51092;50.874;7.024;2024-02-21T03:40:23;9.10;91.80
30889;DHT22;51092;50.874;7.024;2024-02-21T03:41:26;9.10;92.00
30889;DHT22;51092;50.874;7.024;2024-02-21T03:42:29;9.10;92.10
30889;DHT22;51092;50.874;7.024;2024-02-21T03:43:31;9.10;91.90
30889;DHT22;51092;50.874;7.024;2024-02-21T03:44:34;9.10;92.00
30889;DHT22;51092;50.874;7.024;2024-02-21T03:45:35;9.10;92.00
30889;DHT22;51092;50.874;7.024;2024-02-21T03:46:37;9.10;92.10
30889;DHT22;51092;50.874;7.024;2024-02-21T03:47:38;9.10;92.00
30889;DHT22;51092;50.874;7.024;2024-02-21T03:48:40;9.10;92.20
30889;DHT22;51092;50.874;7.024;2024-02-21T03:49:41;9.10;92.20
30889;DHT22;51092;50.874;7.024;2024-02-21T03:50:43;9.00;92.30
30889;DHT22;51092;50.874;7.024;2024-02-21T03:51:44;9.00;92.30
30889;DHT22;51092;50.874;7.024;2024-02-21T03:52:46;9.00;92.40
30889;DHT22;51092;50.874;7.024;2024-02-21T03:53:47;9.00;92.30
30889;DHT22;51092;50.874;7.024;2024-02-21T03:54:49;9.00;92.30
30889;DHT22;51092;50.874;7.024;2024-02-21T03:55:50;9.00;92.30
30889;DHT22;51092;50.874;7.024;2024-02-21T03:56:54;9.00;92.40
30889;DHT22;51092;50.874;7.024;2024-02-21T03:57:56;9.00;92.50
30889;DHT22;51092;50.874;7.024;2024-02-21T03:58:58;9.00;92.40
30889;DHT22;51092;50.874;7.024;2024-02-21T04:00:00;9.00;92.50
30889;DHT22;51092;50.874;7.024;2024-02-21T04:01:04;9.00;92.60
30889;DHT22;51092;50.874;7.024;2024-02-21T04:02:06;8.90;92.70
30889;DHT22;51092;50.874;7.024;2024-02-21T04:03:13;8.90;92.90
30889;DHT22;51092;50.874;7.024;2024-02-21T04:04:14;8.90;92.70
30889;DHT22;51092;50.874;7.024;2024-02-21T04:05:16;8.90;92.70
30889;DHT22;51092;50.874;7.024;2024-02-21T04:06:18;8.90;92.70
30889;DHT22;51092;50.874;7.024;2024-02-21T04:07:20;8.90;92.90
30889;DHT22;51092;50.874;7.024;2024-02-21T04:08:22;8.90;92.80
30889;DHT22;51092;50.874;7.024;2024-02-21T04:09:25;8.90;93.00
30889;DHT22;51092;50.874;7.024;2024-02-21T04:10:26;8.90;92.80
30889;DHT22;51092;50.874;7.024;2024-02-21T04:11:29;8.90;92.90
30889;DHT22;51092;50.874;7.024;2024-02-21T04:12:31;8.90;92.80
30889;DHT22;51092;50.874;7.024;2024-02-21T04:13:34;8.90;92.90
30889;DHT22;51092;50.874;7.024;2024-02-21T04:14:35;8.90;92.80
30889;DHT22;51092;50.874;7.024;2024-02-21T04:15:38;8.90;92.70
30889;DHT22;51092;50.874;7.024;2024-02-21T04:16:39;8.90;92.90
30889;DHT22;51092;50.874;7.024;2024-02-21T04:17:42;8.90;93.00
30889;DHT22;51092;50.874;7.024;2024-02-21T04:18:44;8.90;92.90
30889;DHT22;51092;50.874;7.024;2024-02-21T04:19:46;8.80;92.90
30889;DHT22;51092;50.874;7.024;2024-02-21T04:20:48;8.90;92.80
30889;DHT22;51092;50.874;7.024;2024-02-21T04:21:51;8.90;92.90
30889;DHT22;51092;50.874;7.024;2024-02-21T04:22:52;8.80;92.90
30889;DHT22;51092;50.874;7.024;2024-02-21T04:23:55;8.80;92.90
30889;DHT22;51092;50.874;7.024;2024-02-21T04:24:56;8.90;92.60
30889;DHT22;51092;50.874;7.024;2024-02-21T04:26:01;8.80;92.90
30889;DHT22;51092;50.874;7.024;2024-02-21T04:27:04;8.90;92.70
30889;DHT22;51092;50.874;7.024;2024-02-21T04:28:07;8.90;92.90
30889;DHT22;51092;50.874;7.024;2024-02-21T04:29:09;8.90;92.70
30889;DHT22;51092;50.874;7.024;2024-02-21T04:30:12;8.90;92.80
30889;DHT22;51092;50.874;7.024;2024-02-21T04:31:14;8.90;92.70
30889;DHT22;51092;50.874;7.024;2024-02-21T04:32:16;8.90;92.80
30889;DHT22;51092;50.874;7.024;2024-02-21T04:33:18;8.90;92.70
30889;DHT22;51092;50.874;7.024;2024-02-21T04:34:20;8.90;92.60
30889;DHT22;51092;50.874;7.024;2024-02-21T04:35:22;8.90;92.30
30889;DHT22;51092;50.874;7.024;2024-02-21T04:36:23;9.00;92.30
30889;DHT22;51092;50.874;7.024;2024-02-21T04:37:25;9.00;92.20
30889;DHT22;51092;50.874;7.024;2024-02-21T04:38:27;9.00;92.00
30889;DHT22;51092;50.874;7.024;2024-02-21T04:39:29;9.00;92.00
30889;DHT22;51092;50.874;7.024;2024-02-21T04:40:31;9.00;92.00
30889;DHT22;51092;50.874;7.024;2024-02-21T04:41:33;9.00;92.10
30889;DHT22;51092;50.874;7.024;2024-02-21T04:42:35;9.00;92.00
30889;DHT22;51092;50.874;7.024;2024-02-21T04:43:38;9.00;92.30
30889;DHT22;51092;50.874;7.024;2024-02-21T04:44:41;9.00;92.20
30889;DHT22;51092;50.874;7.024;2024-02-21T04:45:44;9.00;92.20
30889;DHT22;51092;50.874;7.024;2024-02-21T04:46:45;9.00;92.20
30889;DHT22;51092;50.874;7.024;2024-02-21T04:47:48;9.00;92.20
30889;DHT22;51092;50.874;7.024;2024-02-21T04:48:49;9.00;92.00
30889;DHT22;51092;50.874;7.024;2024-02-21T04:49:52;9.00;92.10
30889;DHT22;51092;50.874;7.024;2024-02-21T04:50:53;9.00;91.90
30889;DHT22;51092;50.874;7.024;2024-02-21T04:51:55;9.10;91.80
30889;DHT22;51092;50.874;7.024;2024-02-21T04:52:56;9.10;91.70
30889;DHT22;51092;50.874;7.024;2024-02-21T04:53:58;9.10;91.70
30889;DHT22;51092;50.874;7.024;2024-02-21T04:54:59;9.10;91.90
30889;DHT22;51092;50.874;7.024;2024-02-21T04:56:01;9.00;91.70
30889;DHT22;51092;50.874;7.024;2024-02-21T04:57:03;9.00;91.80
30889;DHT22;51092;50.874;7.024;2024-02-21T04:58:06;9.00;91.80
30889;DHT22;51092;50.874;7.024;2024-02-21T04:59:09;9.00;91.80
30889;DHT22;51092;50.874;7.024;2024-02-21T05:00:12;9.00;91.70
30889;DHT22;51092;50.874;7.024;2024-02-21T05:01:14;9.00;91.70
30889;DHT22;51092;50.874;7.024;2024-02-21T05:02:16;9.00;91.60
30889;DHT22;51092;50.874;7.024;2024-02-21T05:03:18;9.10;91.50
30889;DHT22;51092;50.874;7.024;2024-02-21T05:04:19;9.10;91.60
30889;DHT22;51092;50.874;7.024;2024-02-21T05:05:22;9.10;91.60
30889;DHT22;51092;50.874;7.024;2024-02-21T05:06:23;9.10;91.30
30889;DHT22;51092;50.874;7.024;2024-02-21T05:07:26;9.10;91.30
30889;DHT22;51092;50.874;7.024;2024-02-21T05:08:27;9.10;91.40
30889;DHT22;51092;50.874;7.024;2024-02-21T05:09:29;9.10;91.50
30889;DHT22;51092;50.874;7.024;2024-02-21T05:10:31;9.10;91.40
30889;DHT22;51092;50.874;7.024;2024-02-21T05:11:33;9.20;91.80
30889;DHT22;51092;50.874;7.024;2024-02-21T05:12:35;9.20;91.00
30889;DHT22;51092;50.874;7.024;2024-02-21T05:13:38;9.20;90.90
30889;DHT22;51092;50.874;7.024;2024-02-21T05:14:42;9.20;91.00
30889;DHT22;51092;50.874;7.024;2024-02-21T05:15:43;9.10;91.20
30889;DHT22;51092;50.874;7.024;2024-02-21T05:16:45;9.10;91.40
30889;DHT22;51092;50.874;7.024;2024-02-21T05:17:46;9.10;91.40
30889;DHT22;51092;50.874;7.024;2024-02-21T05:18:48;9.00;91.50
30889;DHT22;51092;50.874;7.024;2024-02-21T05:19:49;9.00;91.50
30889;DHT22;51092;50.874;7.024;2024-02-21T05:20:51;9.00;91.80
30889;DHT22;51092;50.874;7.024;2024-02-21T05:21:53;9.00;91.80
30889;DHT22;51092;50.874;7.024;2024-02-21T05:22:55;8.90;92.00
30889;DHT22;51092;50.874;7.024;2024-02-21T05:23:56;9.00;91.70
30889;DHT22;51092;50.874;7.024;2024-02-21T05:24:59;9.00;91.70
30889;DHT22;51092;50.874;7.024;2024-02-21T05:26:01;9.00;91.70
30889;DHT22;51092;50.874;7.024;2024-02-21T05:27:02;9.00;91.80
30889;DHT22;51092;50.874;7.024;2024-02-21T05:28:05;9.00;92.10
30889;DHT22;51092;50.874;7.024;2024-02-21T05:29:07;9.00;91.70
30889;DHT22;51092;50.874;7.024;2024-02-21T05:30:12;9.00;91.90
30889;DHT22;51092;50.874;7.024;2024-02-21T05:31:13;9.00;91.80
30889;DHT22;51092;50.874;7.024;2024-02-21T05:32:16;9.00;91.70
30889;DHT22;51092;50.874;7.024;2024-02-21T05:33:18;9.00;91.70
30889;DHT22;51092;50.874;7.024;2024-02-21T05:34:22;9.00;91.70
30889;DHT22;51092;50.874;7.024;2024-02-21T05:35:27;9.00;91.90
30889;DHT22;51092;50.874;7.024;2024-02-21T05:36:29;9.00;91.90
30889;DHT22;51092;50.874;7.024;2024-02-21T05:37:31;9.00;91.80
30889;DHT22;51092;50.874;7.024;2024-02-21T05:38:34;9.00;91.90
30889;DHT22;51092;50.874;7.024;2024-02-21T05:39:36;8.90;92.10
30889;DHT22;51092;50.874;7.024;2024-02-21T05:40:39;8.90;92.00
30889;DHT22;51092;50.874;7.024;2024-02-21T05:41:40;8.90;92.20
30889;DHT22;51092;50.874;7.024;2024-02-21T05:42:43;8.90;92.20
30889;DHT22;51092;50.874;7.024;2024-02-21T05:43:44;9.00;92.10
30889;DHT22;51092;50.874;7.024;2024-02-21T05:44:47;9.00;92.00
30889;DHT22;51092;50.874;7.024;2024-02-21T05:45:50;9.00;91.70
30889;DHT22;51092;50.874;7.024;2024-02-21T05:46:52;9.00;91.80
30889;DHT22;51092;50.874;7.024;2024-02-21T05:47:53;9.00;91.80
30889;DHT22;51092;50.874;7.024;2024-02-21T05:48:56;9.00;91.80
30889;DHT22;51092;50.874;7.024;2024-02-21T05:49:57;9.00;91.60
30889;DHT22;51092;50.874;7.024;2024-02-21T05:51:01;9.00;91.70
30889;DHT22;51092;50.874;7.024;2024-02-21T05:52:03;9.00;91.50
30889;DHT22;51092;50.874;7.024;2024-02-21T05:53:07;9.00;91.60
30889;DHT22;51092;50.874;7.024;2024-02-21T05:54:08;9.00;91.80
30889;DHT22;51092;50.874;7.024;2024-02-21T05:55:10;9.00;91.60
30889;DHT22;51092;50.874;7.024;2024-02-21T05:56:12;9.00;91.40
30889;DHT22;51092;50.874;7.024;2024-02-21T05:57:14;9.10;91.50
30889;DHT22;51092;50.874;7.024;2024-02-21T05:58:16;9.00;91.30
30889;DHT22;51092;50.874;7.024;2024-02-21T05:59:18;9.00;91.40
30889;DHT22;51092;50.874;7.024;2024-02-21T06:00:19;9.10;91.20
30889;DHT22;51092;50.874;7.024;2024-02-21T06:01:23;9.00;91.40
30889;DHT22;51092;50.874;7.024;2024-02-21T06:02:25;9.00;91.30
30889;DHT22;51092;50.874;7.024;2024-02-21T06:03:28;9.00;91.40
30889;DHT22;51092;50.874;7.024;2024-02-21T06:04:29;9.00;91.40
30889;DHT22;51092;50.874;7.024;2024-02-21T06:05:36;9.00;91.30
30889;DHT22;51092;50.874;7.024;2024-02-21T06:06:38;9.00;91.20
30889;DHT22;51092;50.874;7.024;2024-02-21T06:07:40;9.00;91.50
30889;DHT22;51092;50.874;7.024;2024-02-21T06:08:40;9.00;91.20
30889;DHT22;51092;50.874;7.024;2024-02-21T06:09:42;9.00;91.50
30889;DHT22;51092;50.874;7.024;2024-02-21T06:10:43;9.00;91.40
30889;DHT22;51092;50.874;7.024;2024-02-21T06:11:46;9.00;91.40
30889;DHT22;51092;50.874;7.024;2024-02-21T06:12:49;9.00;91.40
30889;DHT22;51092;50.874;7.024;2024-02-21T06:13:51;9.00;91.30
30889;DHT22;51092;50.874;7.024;2024-02-21T06:14:53;9.00;91.40
30889;DHT22;51092;50.874;7.024;2024-02-21T06:15:55;9.00;91.50
30889;DHT22;51092;50.874;7.024;2024-02-21T06:16:58;9.10;91.20
30889;DHT22;51092;50.874;7.024;2024-02-21T06:18:00;9.00;91.00
30889;DHT22;51092;50.874;7.024;2024-02-21T06:19:01;9.10;90.90
30889;DHT22;51092;50.874;7.024;2024-02-21T06:20:05;9.00;91.00
30889;DHT22;51092;50.874;7.024;2024-02-21T06:21:07;9.00;91.20
30889;DHT22;51092;50.874;7.024;2024-02-21T06:22:10;9.00;91.40
30889;DHT22;51092;50.874;7.024;2024-02-21T06:23:11;9.00;91.00
30889;DHT22;51092;50.874;7.024;2024-02-21T06:24:13;9.00;91.20
30889;DHT22;51092;50.874;7.024;2024-02-21T06:25:16;9.10;91.00
30889;DHT22;51092;50.874;7.024;2024-02-21T06:26:18;9.10;90.90
30889;DHT22;51092;50.874;7.024;2024-02-21T06:27:20;9.20;90.80
30889;DHT22;51092;50.874;7.024;2024-02-21T06:28:21;9.20;90.40
30889;DHT22;51092;50.874;7.024;2024-02-21T06:29:24;9.20;90.10
30889;DHT22;51092;50.874;7.024;2024-02-21T06:30:25;9.20;90.20
30889;DHT22;51092;50.874;7.024;2024-02-21T06:31:28;9.20;90.30
30889;DHT22;51092;50.874;7.024;2024-02-21T06:32:31;9.20;90.30
30889;DHT22;51092;50.874;7.024;2024-02-21T06:33:33;9.10;90.50
30889;DHT22;51092;50.874;7.024;2024-02-21T06:34:35;9.20;90.60
30889;DHT22;51092;50.874;7.024;2024-02-21T06:35:37;9.10;90.80
30889;DHT22;51092;50.874;7.024;2024-02-21T06:36:42;9.20;90.80
30889;DHT22;51092;50.874;7.024;2024-02-21T06:37:44;9.20;90.70
30889;DHT22;51092;50.874;7.024;2024-02-21T06:38:51;9.20;90.80
30889;DHT22;51092;50.874;7.024;2024-02-21T06:39:54;9.20;90.80
30889;DHT22;51092;50.874;7.024;2024-02-21T06:40:55;9.20;90.90